Language selection

Weather shortcuts

Pacific - North Coast: Past 24 Hour Conditions

 

South Hecate Strait - 46185

06:00 AM PDT 28 May 2024Buoy position: 52.85N 130.08W
Disclaimer

This table is a summary of hourly weather conditions for the past 24 hours.
Please note that these observations might not always be representative of weather conditions over their associated marine area.

Date / Time
(PDT)
Wind(knots) Wave height(m) Wave period(s) Pressure(kPa) Air tempC) Water tempC)
28 May 2024
6:00 WNW 8 gusts 10 1.10 5.3 101.5 10 11
5:00 WNW 9 gusts 11 1.10 5.4 101.5 10 11
4:00 NW 9 gusts 10 N/A 5.0 101.4 9 11
3:00 NW 8 gusts 10 N/A 5.6 101.4 10 11
2:00 WNW 4 gusts 6 N/A 5.6 101.5 10 11
1:00 WNW 6 gusts 8 N/A 5.8 101.5 9 11
0:00 WNW 10 gusts 12 N/A 5.6 101.5 10 11
27 May 2024
23:00 WNW 10 gusts 12 1.00 5.2 101.6 10 11
22:00 NW 10 gusts 11 1.00 5.7 101.6 10 11
21:00 NW 7 gusts 9 1.00 5.3 101.6 10 11
20:00 NW 11 gusts 12 1.10 5.6 101.6 10 11
19:00 NW 13 gusts 15 1.10 6.1 101.6 10 11
18:00 NW 12 gusts 15 1.20 5.2 101.6 10 11
17:00 NW 15 gusts 18 1.30 5.1 101.6 10 11
16:00 NW 15 gusts 18 1.30 5.3 101.6 10 11
15:00 WNW 17 gusts 21 1.40 4.9 101.6 10 11
14:00 NW 17 gusts 22 1.30 5.0 101.5 10 11
13:00 NW 17 gusts 20 1.40 5.4 101.5 10 11
12:00 WNW 21 gusts 27 1.40 5.6 101.5 9 11
11:00 NW 16 gusts 19 1.30 6.1 101.4 10 11
10:00 NW 15 gusts 17 1.20 6.0 101.4 10 11
9:00 WNW 16 gusts 22 1.10 4.7 101.4 9 11
8:00 WNW 14 gusts 17 1.10 5.1 101.3 9 11
7:00 NW 13 gusts 15 1.10 5.7 101.3 10 11
6:00 NW 11 gusts 13 1.20 5.4 101.3 9 11

Zoom-in to make a selection

Map of Pacific - North Coast marine weather areas Middle Nomad - 46004 South Nomad - 46036 Dixon Entrance Central - 46145 South Moresby - 46147 Nanakwa Shoal - 46181 North Hecate Strait - 46183 North Nomad - 46184 South Hecate Strait - 46185 West Sea Otter - 46204 West Dixon Entrance - 46205 East Dellwood - 46207 West Moresby - 46208 Sartine Island Cape St.James Kindakun Rocks Langara Island Masset Municipal Airport Rose Spit Sandspit Airport Bella Bella Airport Bella Coola Airport Bonilla Island Cathedral Point Cumshewa Island Grey Islet Holland Rock Lucy Islands Lightstation Prince Rupert Airport
Legend:
buoy Buoy
land station Land Station

Pacific - North Coast Area

Another Region

Features

New Predicting and Alerting Coastal Flooding Program

Find out about coastal flooding coverage, forecasts and warnings in your region

Date modified: